sensor_id;sensor_type;location;lat;lon;timestamp;P1;durP1;ratioP1;P2;durP2;ratioP2
3527;SDS011;1778;47.966;7.854;2022-10-13T00:00:43;3.60;;;3.60;;
3527;SDS011;1778;47.966;7.854;2022-10-13T00:01:46;3.40;;;3.40;;
3527;SDS011;1778;47.966;7.854;2022-10-13T00:02:47;3.60;;;3.60;;
3527;SDS011;1778;47.966;7.854;2022-10-13T00:03:49;3.40;;;3.40;;
3527;SDS011;1778;47.966;7.854;2022-10-13T00:04:53;3.80;;;3.80;;
3527;SDS011;1778;47.966;7.854;2022-10-13T00:05:56;3.37;;;3.37;;
3527;SDS011;1778;47.966;7.854;2022-10-13T00:06:58;3.60;;;3.60;;
3527;SDS011;1778;47.966;7.854;2022-10-13T00:07:59;3.70;;;3.70;;
3527;SDS011;1778;47.966;7.854;2022-10-13T00:09:03;3.50;;;3.50;;
3527;SDS011;1778;47.966;7.854;2022-10-13T00:10:05;3.60;;;3.60;;
3527;SDS011;1778;47.966;7.854;2022-10-13T00:11:08;3.80;;;3.80;;
3527;SDS011;1778;47.966;7.854;2022-10-13T00:12:14;3.67;;;3.67;;
3527;SDS011;1778;47.966;7.854;2022-10-13T00:13:17;3.70;;;3.70;;
3527;SDS011;1778;47.966;7.854;2022-10-13T00:14:20;3.47;;;3.47;;
3527;SDS011;1778;47.966;7.854;2022-10-13T00:15:22;3.43;;;3.43;;
3527;SDS011;1778;47.966;7.854;2022-10-13T00:16:26;3.40;;;3.40;;
3527;SDS011;1778;47.966;7.854;2022-10-13T00:17:28;3.40;;;3.40;;
3527;SDS011;1778;47.966;7.854;2022-10-13T00:18:29;3.40;;;3.40;;
3527;SDS011;1778;47.966;7.854;2022-10-13T00:19:31;3.50;;;3.50;;
3527;SDS011;1778;47.966;7.854;2022-10-13T00:20:34;3.80;;;3.80;;
3527;SDS011;1778;47.966;7.854;2022-10-13T00:21:36;3.70;;;3.70;;
3527;SDS011;1778;47.966;7.854;2022-10-13T00:22:37;3.40;;;3.40;;
3527;SDS011;1778;47.966;7.854;2022-10-13T00:23:39;3.87;;;3.87;;
3527;SDS011;1778;47.966;7.854;2022-10-13T00:24:41;3.70;;;3.70;;
3527;SDS011;1778;47.966;7.854;2022-10-13T00:25:43;3.63;;;3.63;;
3527;SDS011;1778;47.966;7.854;2022-10-13T00:26:49;3.63;;;3.63;;
3527;SDS011;1778;47.966;7.854;2022-10-13T00:27:52;3.87;;;3.87;;
3527;SDS011;1778;47.966;7.854;2022-10-13T00:28:56;3.60;;;3.60;;
3527;SDS011;1778;47.966;7.854;2022-10-13T00:29:58;3.77;;;3.77;;
3527;SDS011;1778;47.966;7.854;2022-10-13T00:30:59;3.40;;;3.40;;
3527;SDS011;1778;47.966;7.854;2022-10-13T00:32:01;3.70;;;3.70;;
3527;SDS011;1778;47.966;7.854;2022-10-13T00:33:03;3.60;;;3.60;;
3527;SDS011;1778;47.966;7.854;2022-10-13T00:34:04;3.70;;;3.70;;
3527;SDS011;1778;47.966;7.854;2022-10-13T00:35:06;4.07;;;4.07;;
3527;SDS011;1778;47.966;7.854;2022-10-13T00:36:08;3.80;;;3.80;;
3527;SDS011;1778;47.966;7.854;2022-10-13T00:37:10;3.63;;;3.63;;
3527;SDS011;1778;47.966;7.854;2022-10-13T00:38:11;3.70;;;3.70;;
3527;SDS011;1778;47.966;7.854;2022-10-13T00:39:13;3.70;;;3.70;;
3527;SDS011;1778;47.966;7.854;2022-10-13T00:40:15;3.87;;;3.87;;
3527;SDS011;1778;47.966;7.854;2022-10-13T00:41:16;3.70;;;3.70;;
3527;SDS011;1778;47.966;7.854;2022-10-13T00:42:19;3.63;;;3.63;;
3527;SDS011;1778;47.966;7.854;2022-10-13T00:43:22;3.83;;;3.83;;
3527;SDS011;1778;47.966;7.854;2022-10-13T00:46:07;3.77;;;3.77;;
3527;SDS011;1778;47.966;7.854;2022-10-13T00:47:09;3.70;;;3.70;;
3527;SDS011;1778;47.966;7.854;2022-10-13T00:48:11;3.50;;;3.50;;
3527;SDS011;1778;47.966;7.854;2022-10-13T00:49:13;3.50;;;3.50;;
3527;SDS011;1778;47.966;7.854;2022-10-13T00:50:21;3.70;;;3.70;;
3527;SDS011;1778;47.966;7.854;2022-10-13T00:51:31;3.70;;;3.70;;
3527;SDS011;1778;47.966;7.854;2022-10-13T00:52:36;4.07;;;4.07;;
3527;SDS011;1778;47.966;7.854;2022-10-13T00:53:40;4.37;;;4.27;;
3527;SDS011;1778;47.966;7.854;2022-10-13T00:54:44;4.43;;;4.33;;
3527;SDS011;1778;47.966;7.854;2022-10-13T00:55:46;4.23;;;4.17;;
3527;SDS011;1778;47.966;7.854;2022-10-13T00:56:49;3.83;;;3.83;;
3527;SDS011;1778;47.966;7.854;2022-10-13T00:57:51;4.10;;;4.10;;
3527;SDS011;1778;47.966;7.854;2022-10-13T00:59:02;3.97;;;3.97;;
3527;SDS011;1778;47.966;7.854;2022-10-13T01:00:08;3.80;;;3.80;;
3527;SDS011;1778;47.966;7.854;2022-10-13T01:01:10;3.80;;;3.80;;
3527;SDS011;1778;47.966;7.854;2022-10-13T01:02:12;4.00;;;4.00;;
3527;SDS011;1778;47.966;7.854;2022-10-13T01:03:14;3.50;;;3.50;;
3527;SDS011;1778;47.966;7.854;2022-10-13T01:04:16;3.93;;;3.93;;
3527;SDS011;1778;47.966;7.854;2022-10-13T01:05:19;3.73;;;3.73;;
3527;SDS011;1778;47.966;7.854;2022-10-13T01:06:21;3.83;;;3.83;;
3527;SDS011;1778;47.966;7.854;2022-10-13T01:07:24;3.60;;;3.60;;
3527;SDS011;1778;47.966;7.854;2022-10-13T01:08:27;3.93;;;3.93;;
3527;SDS011;1778;47.966;7.854;2022-10-13T01:09:31;3.77;;;3.77;;
3527;SDS011;1778;47.966;7.854;2022-10-13T01:13:33;3.80;;;3.80;;
3527;SDS011;1778;47.966;7.854;2022-10-13T01:14:56;4.00;;;4.00;;
3527;SDS011;1778;47.966;7.854;2022-10-13T01:16:12;4.37;;;4.27;;
3527;SDS011;1778;47.966;7.854;2022-10-13T01:17:27;3.87;;;3.87;;
3527;SDS011;1778;47.966;7.854;2022-10-13T01:18:50;3.87;;;3.87;;
3527;SDS011;1778;47.966;7.854;2022-10-13T01:22:44;4.37;;;4.27;;
3527;SDS011;1778;47.966;7.854;2022-10-13T01:24:25;4.47;;;4.37;;
3527;SDS011;1778;47.966;7.854;2022-10-13T01:30:14;3.70;;;3.70;;
3527;SDS011;1778;47.966;7.854;2022-10-13T01:34:22;3.60;;;3.60;;
3527;SDS011;1778;47.966;7.854;2022-10-13T01:37:10;3.83;;;3.83;;
3527;SDS011;1778;47.966;7.854;2022-10-13T01:38:34;3.67;;;3.67;;
3527;SDS011;1778;47.966;7.854;2022-10-13T01:39:44;4.50;;;4.40;;
3527;SDS011;1778;47.966;7.854;2022-10-13T01:42:03;3.70;;;3.70;;
3527;SDS011;1778;47.966;7.854;2022-10-13T01:43:23;3.93;;;3.93;;
3527;SDS011;1778;47.966;7.854;2022-10-13T01:44:33;4.00;;;4.00;;
3527;SDS011;1778;47.966;7.854;2022-10-13T01:45:57;4.13;;;4.10;;
3527;SDS011;1778;47.966;7.854;2022-10-13T01:47:00;4.03;;;4.03;;
3527;SDS011;1778;47.966;7.854;2022-10-13T01:48:04;4.03;;;4.03;;
3527;SDS011;1778;47.966;7.854;2022-10-13T01:49:14;3.93;;;3.93;;
3527;SDS011;1778;47.966;7.854;2022-10-13T01:50:18;4.57;;;4.47;;
3527;SDS011;1778;47.966;7.854;2022-10-13T01:51:21;3.87;;;3.87;;
3527;SDS011;1778;47.966;7.854;2022-10-13T01:52:26;3.83;;;3.83;;
3527;SDS011;1778;47.966;7.854;2022-10-13T01:53:34;4.00;;;4.00;;
3527;SDS011;1778;47.966;7.854;2022-10-13T01:54:36;4.30;;;4.20;;
3527;SDS011;1778;47.966;7.854;2022-10-13T01:55:47;4.60;;;4.50;;
3527;SDS011;1778;47.966;7.854;2022-10-13T01:56:54;4.60;;;4.50;;
3527;SDS011;1778;47.966;7.854;2022-10-13T01:57:56;4.67;;;4.57;;
3527;SDS011;1778;47.966;7.854;2022-10-13T01:58:58;3.67;;;3.67;;
3527;SDS011;1778;47.966;7.854;2022-10-13T02:00:10;3.80;;;3.80;;
3527;SDS011;1778;47.966;7.854;2022-10-13T02:01:59;4.00;;;4.00;;
3527;SDS011;1778;47.966;7.854;2022-10-13T02:04:36;4.20;;;4.20;;
3527;SDS011;1778;47.966;7.854;2022-10-13T02:05:49;4.10;;;4.10;;
3527;SDS011;1778;47.966;7.854;2022-10-13T02:07:01;4.40;;;4.30;;
3527;SDS011;1778;47.966;7.854;2022-10-13T02:08:24;4.00;;;4.00;;
3527;SDS011;1778;47.966;7.854;2022-10-13T02:09:54;4.30;;;4.20;;
3527;SDS011;1778;47.966;7.854;2022-10-13T02:11:10;4.90;;;4.80;;
3527;SDS011;1778;47.966;7.854;2022-10-13T02:13:06;4.23;;;4.17;;
3527;SDS011;1778;47.966;7.854;2022-10-13T02:13:44;4.40;;;4.30;;
3527;SDS011;1778;47.966;7.854;2022-10-13T02:14:57;4.10;;;4.10;;
3527;SDS011;1778;47.966;7.854;2022-10-13T02:16:00;4.53;;;4.43;;
3527;SDS011;1778;47.966;7.854;2022-10-13T02:17:03;4.50;;;4.40;;
3527;SDS011;1778;47.966;7.854;2022-10-13T02:18:07;4.47;;;4.37;;
3527;SDS011;1778;47.966;7.854;2022-10-13T02:19:13;3.90;;;3.90;;
3527;SDS011;1778;47.966;7.854;2022-10-13T02:20:17;4.10;;;4.10;;
3527;SDS011;1778;47.966;7.854;2022-10-13T02:21:20;4.17;;;4.17;;
3527;SDS011;1778;47.966;7.854;2022-10-13T02:22:23;4.70;;;4.60;;
3527;SDS011;1778;47.966;7.854;2022-10-13T02:23:32;4.23;;;4.17;;
3527;SDS011;1778;47.966;7.854;2022-10-13T02:24:33;4.37;;;4.27;;
3527;SDS011;1778;47.966;7.854;2022-10-13T02:25:35;4.50;;;4.40;;
3527;SDS011;1778;47.966;7.854;2022-10-13T02:26:37;4.70;;;4.60;;
3527;SDS011;1778;47.966;7.854;2022-10-13T02:27:43;4.30;;;4.20;;
3527;SDS011;1778;47.966;7.854;2022-10-13T02:28:45;4.30;;;4.20;;
3527;SDS011;1778;47.966;7.854;2022-10-13T02:29:48;4.70;;;4.60;;
3527;SDS011;1778;47.966;7.854;2022-10-13T02:30:52;4.50;;;4.40;;
3527;SDS011;1778;47.966;7.854;2022-10-13T02:31:53;4.43;;;4.33;;
3527;SDS011;1778;47.966;7.854;2022-10-13T02:32:55;4.57;;;4.47;;
3527;SDS011;1778;47.966;7.854;2022-10-13T02:33:56;4.50;;;4.40;;
3527;SDS011;1778;47.966;7.854;2022-10-13T02:34:58;4.50;;;4.40;;
3527;SDS011;1778;47.966;7.854;2022-10-13T02:35:59;4.90;;;4.80;;
3527;SDS011;1778;47.966;7.854;2022-10-13T02:37:01;4.83;;;4.73;;
3527;SDS011;1778;47.966;7.854;2022-10-13T02:38:02;4.73;;;4.63;;
3527;SDS011;1778;47.966;7.854;2022-10-13T02:39:09;4.60;;;4.50;;
3527;SDS011;1778;47.966;7.854;2022-10-13T02:40:11;4.70;;;4.60;;
3527;SDS011;1778;47.966;7.854;2022-10-13T02:41:14;4.93;;;4.83;;
3527;SDS011;1778;47.966;7.854;2022-10-13T02:42:15;4.57;;;4.47;;
3527;SDS011;1778;47.966;7.854;2022-10-13T02:43:17;4.77;;;4.67;;
3527;SDS011;1778;47.966;7.854;2022-10-13T02:44:19;5.20;;;5.10;;
3527;SDS011;1778;47.966;7.854;2022-10-13T02:45:21;5.10;;;5.00;;
3527;SDS011;1778;47.966;7.854;2022-10-13T02:46:22;4.90;;;4.80;;
3527;SDS011;1778;47.966;7.854;2022-10-13T02:47:24;4.67;;;4.57;;
3527;SDS011;1778;47.966;7.854;2022-10-13T02:48:26;4.70;;;4.60;;
3527;SDS011;1778;47.966;7.854;2022-10-13T02:49:27;4.67;;;4.57;;
3527;SDS011;1778;47.966;7.854;2022-10-13T02:50:28;5.00;;;4.90;;
3527;SDS011;1778;47.966;7.854;2022-10-13T02:51:31;5.20;;;5.10;;
3527;SDS011;1778;47.966;7.854;2022-10-13T02:52:39;5.10;;;5.00;;
3527;SDS011;1778;47.966;7.854;2022-10-13T02:53:41;4.50;;;4.40;;
3527;SDS011;1778;47.966;7.854;2022-10-13T02:54:42;4.87;;;4.77;;
3527;SDS011;1778;47.966;7.854;2022-10-13T02:55:44;4.70;;;4.60;;
3527;SDS011;1778;47.966;7.854;2022-10-13T02:56:45;5.10;;;5.00;;
3527;SDS011;1778;47.966;7.854;2022-10-13T02:57:46;4.90;;;4.80;;
3527;SDS011;1778;47.966;7.854;2022-10-13T02:58:48;5.43;;;5.33;;
3527;SDS011;1778;47.966;7.854;2022-10-13T02:59:50;5.10;;;5.00;;
3527;SDS011;1778;47.966;7.854;2022-10-13T03:00:51;4.83;;;4.73;;
3527;SDS011;1778;47.966;7.854;2022-10-13T03:01:53;5.17;;;5.07;;
3527;SDS011;1778;47.966;7.854;2022-10-13T03:02:54;4.93;;;4.83;;
3527;SDS011;1778;47.966;7.854;2022-10-13T03:03:56;5.20;;;5.10;;
3527;SDS011;1778;47.966;7.854;2022-10-13T03:04:57;5.10;;;5.00;;
3527;SDS011;1778;47.966;7.854;2022-10-13T03:05:59;5.10;;;5.00;;
3527;SDS011;1778;47.966;7.854;2022-10-13T03:07:01;5.23;;;5.13;;
3527;SDS011;1778;47.966;7.854;2022-10-13T03:08:03;5.27;;;5.17;;
3527;SDS011;1778;47.966;7.854;2022-10-13T03:09:05;4.83;;;4.73;;
3527;SDS011;1778;47.966;7.854;2022-10-13T03:10:08;4.93;;;4.83;;
3527;SDS011;1778;47.966;7.854;2022-10-13T03:11:09;4.80;;;4.70;;
3527;SDS011;1778;47.966;7.854;2022-10-13T03:12:11;4.93;;;4.83;;
3527;SDS011;1778;47.966;7.854;2022-10-13T03:13:12;5.03;;;4.93;;
3527;SDS011;1778;47.966;7.854;2022-10-13T03:14:13;5.00;;;4.90;;
3527;SDS011;1778;47.966;7.854;2022-10-13T03:15:15;4.77;;;4.67;;
3527;SDS011;1778;47.966;7.854;2022-10-13T03:16:17;4.83;;;4.73;;
3527;SDS011;1778;47.966;7.854;2022-10-13T03:17:18;5.00;;;4.90;;
3527;SDS011;1778;47.966;7.854;2022-10-13T03:18:19;5.13;;;5.03;;
3527;SDS011;1778;47.966;7.854;2022-10-13T03:19:21;5.00;;;4.90;;
3527;SDS011;1778;47.966;7.854;2022-10-13T03:20:22;5.20;;;5.10;;
3527;SDS011;1778;47.966;7.854;2022-10-13T03:21:24;5.10;;;5.00;;
3527;SDS011;1778;47.966;7.854;2022-10-13T03:22:26;5.13;;;5.03;;
3527;SDS011;1778;47.966;7.854;2022-10-13T03:23:28;4.80;;;4.70;;
3527;SDS011;1778;47.966;7.854;2022-10-13T03:24:31;4.93;;;4.83;;
3527;SDS011;1778;47.966;7.854;2022-10-13T03:25:33;4.77;;;4.67;;
3527;SDS011;1778;47.966;7.854;2022-10-13T03:26:35;4.77;;;4.67;;
3527;SDS011;1778;47.966;7.854;2022-10-13T03:27:36;4.80;;;4.70;;
3527;SDS011;1778;47.966;7.854;2022-10-13T03:28:37;4.83;;;4.73;;
3527;SDS011;1778;47.966;7.854;2022-10-13T03:29:39;4.60;;;4.50;;
3527;SDS011;1778;47.966;7.854;2022-10-13T03:30:41;4.87;;;4.77;;
3527;SDS011;1778;47.966;7.854;2022-10-13T03:31:42;4.70;;;4.60;;
3527;SDS011;1778;47.966;7.854;2022-10-13T03:32:44;4.57;;;4.47;;
3527;SDS011;1778;47.966;7.854;2022-10-13T03:33:46;4.80;;;4.70;;
3527;SDS011;1778;47.966;7.854;2022-10-13T03:34:48;5.03;;;4.93;;
3527;SDS011;1778;47.966;7.854;2022-10-13T03:35:49;4.90;;;4.80;;
3527;SDS011;1778;47.966;7.854;2022-10-13T03:36:51;4.83;;;4.73;;
3527;SDS011;1778;47.966;7.854;2022-10-13T03:37:52;4.67;;;4.57;;
3527;SDS011;1778;47.966;7.854;2022-10-13T03:38:57;4.90;;;4.80;;
3527;SDS011;1778;47.966;7.854;2022-10-13T03:39:59;4.50;;;4.40;;
3527;SDS011;1778;47.966;7.854;2022-10-13T03:41:07;4.70;;;4.60;;
3527;SDS011;1778;47.966;7.854;2022-10-13T03:42:14;5.10;;;5.00;;
3527;SDS011;1778;47.966;7.854;2022-10-13T03:43:20;5.40;;;5.30;;
3527;SDS011;1778;47.966;7.854;2022-10-13T03:44:22;4.93;;;4.83;;
3527;SDS011;1778;47.966;7.854;2022-10-13T03:45:24;5.47;;;5.37;;
3527;SDS011;1778;47.966;7.854;2022-10-13T03:46:26;5.43;;;5.33;;
3527;SDS011;1778;47.966;7.854;2022-10-13T03:47:31;5.50;;;5.40;;
3527;SDS011;1778;47.966;7.854;2022-10-13T03:48:35;5.63;;;5.53;;
3527;SDS011;1778;47.966;7.854;2022-10-13T03:49:37;5.13;;;5.03;;
3527;SDS011;1778;47.966;7.854;2022-10-13T03:50:38;5.03;;;4.93;;
3527;SDS011;1778;47.966;7.854;2022-10-13T03:51:40;5.00;;;4.90;;
3527;SDS011;1778;47.966;7.854;2022-10-13T03:52:42;4.97;;;4.87;;
3527;SDS011;1778;47.966;7.854;2022-10-13T03:53:43;5.00;;;4.90;;
3527;SDS011;1778;47.966;7.854;2022-10-13T03:54:45;5.03;;;4.93;;
3527;SDS011;1778;47.966;7.854;2022-10-13T03:55:50;6.30;;;6.10;;
3527;SDS011;1778;47.966;7.854;2022-10-13T03:56:53;4.97;;;4.87;;
3527;SDS011;1778;47.966;7.854;2022-10-13T03:57:54;5.30;;;5.20;;
3527;SDS011;1778;47.966;7.854;2022-10-13T03:58:56;4.90;;;4.80;;
3527;SDS011;1778;47.966;7.854;2022-10-13T03:59:59;5.10;;;5.00;;
3527;SDS011;1778;47.966;7.854;2022-10-13T04:01:12;5.87;;;5.77;;
3527;SDS011;1778;47.966;7.854;2022-10-13T04:02:15;5.83;;;5.73;;
3527;SDS011;1778;47.966;7.854;2022-10-13T04:03:17;5.40;;;5.30;;
3527;SDS011;1778;47.966;7.854;2022-10-13T04:04:18;6.07;;;5.97;;
3527;SDS011;1778;47.966;7.854;2022-10-13T04:05:21;5.73;;;5.63;;
3527;SDS011;1778;47.966;7.854;2022-10-13T04:06:24;5.67;;;5.57;;
3527;SDS011;1778;47.966;7.854;2022-10-13T04:07:26;5.17;;;5.07;;
3527;SDS011;1778;47.966;7.854;2022-10-13T04:08:28;4.97;;;4.87;;
3527;SDS011;1778;47.966;7.854;2022-10-13T04:09:30;5.07;;;4.97;;
3527;SDS011;1778;47.966;7.854;2022-10-13T04:10:31;5.13;;;5.03;;
3527;SDS011;1778;47.966;7.854;2022-10-13T04:11:34;5.10;;;5.00;;
3527;SDS011;1778;47.966;7.854;2022-10-13T04:12:35;5.70;;;5.60;;
3527;SDS011;1778;47.966;7.854;2022-10-13T04:13:37;5.33;;;5.23;;
3527;SDS011;1778;47.966;7.854;2022-10-13T04:14:38;5.40;;;5.30;;
3527;SDS011;1778;47.966;7.854;2022-10-13T04:15:41;5.33;;;5.23;;
3527;SDS011;1778;47.966;7.854;2022-10-13T04:16:42;5.47;;;5.37;;
3527;SDS011;1778;47.966;7.854;2022-10-13T04:17:44;5.73;;;5.63;;
3527;SDS011;1778;47.966;7.854;2022-10-13T04:18:49;5.73;;;5.63;;
3527;SDS011;1778;47.966;7.854;2022-10-13T04:19:52;5.63;;;5.53;;
3527;SDS011;1778;47.966;7.854;2022-10-13T04:20:53;5.40;;;5.30;;
3527;SDS011;1778;47.966;7.854;2022-10-13T04:21:55;5.60;;;5.50;;
3527;SDS011;1778;47.966;7.854;2022-10-13T04:22:56;6.00;;;5.90;;
3527;SDS011;1778;47.966;7.854;2022-10-13T04:23:58;5.40;;;5.30;;
3527;SDS011;1778;47.966;7.854;2022-10-13T04:25:01;5.53;;;5.43;;
3527;SDS011;1778;47.966;7.854;2022-10-13T04:26:03;6.00;;;5.90;;
3527;SDS011;1778;47.966;7.854;2022-10-13T04:27:05;5.27;;;5.17;;
3527;SDS011;1778;47.966;7.854;2022-10-13T04:28:07;5.50;;;5.40;;
3527;SDS011;1778;47.966;7.854;2022-10-13T04:29:10;5.57;;;5.47;;
3527;SDS011;1778;47.966;7.854;2022-10-13T04:30:12;5.43;;;5.33;;
3527;SDS011;1778;47.966;7.854;2022-10-13T04:31:14;5.93;;;5.83;;
3527;SDS011;1778;47.966;7.854;2022-10-13T04:32:16;5.63;;;5.53;;
3527;SDS011;1778;47.966;7.854;2022-10-13T04:33:18;6.00;;;5.90;;
3527;SDS011;1778;47.966;7.854;2022-10-13T04:34:19;5.80;;;5.70;;
3527;SDS011;1778;47.966;7.854;2022-10-13T04:35:21;5.93;;;5.83;;
3527;SDS011;1778;47.966;7.854;2022-10-13T04:36:23;5.60;;;5.50;;
3527;SDS011;1778;47.966;7.854;2022-10-13T04:37:25;5.77;;;5.67;;
3527;SDS011;1778;47.966;7.854;2022-10-13T04:38:27;6.10;;;6.00;;
3527;SDS011;1778;47.966;7.854;2022-10-13T04:39:29;6.10;;;6.00;;
3527;SDS011;1778;47.966;7.854;2022-10-13T04:40:30;6.17;;;6.07;;
3527;SDS011;1778;47.966;7.854;2022-10-13T04:41:32;5.97;;;5.87;;
3527;SDS011;1778;47.966;7.854;2022-10-13T04:42:33;5.87;;;5.77;;
3527;SDS011;1778;47.966;7.854;2022-10-13T04:43:35;5.70;;;5.60;;
3527;SDS011;1778;47.966;7.854;2022-10-13T04:44:38;5.77;;;5.67;;
3527;SDS011;1778;47.966;7.854;2022-10-13T04:45:41;5.67;;;5.57;;
3527;SDS011;1778;47.966;7.854;2022-10-13T04:46:42;5.53;;;5.43;;
3527;SDS011;1778;47.966;7.854;2022-10-13T04:47:44;5.30;;;5.20;;
3527;SDS011;1778;47.966;7.854;2022-10-13T04:48:45;5.93;;;5.83;;
3527;SDS011;1778;47.966;7.854;2022-10-13T04:49:47;5.07;;;4.97;;
3527;SDS011;1778;47.966;7.854;2022-10-13T04:50:56;5.50;;;5.40;;
3527;SDS011;1778;47.966;7.854;2022-10-13T04:51:59;5.50;;;5.40;;
3527;SDS011;1778;47.966;7.854;2022-10-13T04:53:01;5.80;;;5.70;;
3527;SDS011;1778;47.966;7.854;2022-10-13T04:54:02;5.70;;;5.60;;
3527;SDS011;1778;47.966;7.854;2022-10-13T04:55:05;5.83;;;5.73;;
3527;SDS011;1778;47.966;7.854;2022-10-13T04:56:08;5.30;;;5.20;;
3527;SDS011;1778;47.966;7.854;2022-10-13T04:57:14;5.30;;;5.20;;
3527;SDS011;1778;47.966;7.854;2022-10-13T04:58:16;5.00;;;4.90;;
3527;SDS011;1778;47.966;7.854;2022-10-13T04:59:17;5.10;;;5.00;;
3527;SDS011;1778;47.966;7.854;2022-10-13T05:00:19;5.50;;;5.40;;
3527;SDS011;1778;47.966;7.854;2022-10-13T05:01:21;5.70;;;5.60;;
3527;SDS011;1778;47.966;7.854;2022-10-13T05:02:24;5.90;;;5.80;;
3527;SDS011;1778;47.966;7.854;2022-10-13T05:03:25;5.20;;;5.10;;
3527;SDS011;1778;47.966;7.854;2022-10-13T05:04:27;5.50;;;5.40;;
3527;SDS011;1778;47.966;7.854;2022-10-13T05:05:28;5.27;;;5.17;;
3527;SDS011;1778;47.966;7.854;2022-10-13T05:06:31;5.30;;;5.20;;
3527;SDS011;1778;47.966;7.854;2022-10-13T05:07:34;5.80;;;5.70;;
3527;SDS011;1778;47.966;7.854;2022-10-13T05:08:35;5.90;;;5.80;;
3527;SDS011;1778;47.966;7.854;2022-10-13T05:09:38;5.50;;;5.40;;
3527;SDS011;1778;47.966;7.854;2022-10-13T05:10:54;5.80;;;5.70;;
3527;SDS011;1778;47.966;7.854;2022-10-13T05:12:02;5.27;;;5.17;;
3527;SDS011;1778;47.966;7.854;2022-10-13T05:13:03;6.17;;;6.07;;
3527;SDS011;1778;47.966;7.854;2022-10-13T05:14:05;5.57;;;5.47;;
3527;SDS011;1778;47.966;7.854;2022-10-13T05:15:07;5.40;;;5.30;;
3527;SDS011;1778;47.966;7.854;2022-10-13T05:16:09;6.07;;;5.97;;
3527;SDS011;1778;47.966;7.854;2022-10-13T05:17:12;5.40;;;5.30;;
3527;SDS011;1778;47.966;7.854;2022-10-13T05:18:14;5.60;;;5.50;;
3527;SDS011;1778;47.966;7.854;2022-10-13T05:19:16;5.33;;;5.23;;
3527;SDS011;1778;47.966;7.854;2022-10-13T05:20:17;5.50;;;5.40;;
3527;SDS011;1778;47.966;7.854;2022-10-13T05:21:20;5.37;;;5.27;;
3527;SDS011;1778;47.966;7.854;2022-10-13T05:22:24;5.47;;;5.37;;
3527;SDS011;1778;47.966;7.854;2022-10-13T05:23:27;5.00;;;4.90;;
3527;SDS011;1778;47.966;7.854;2022-10-13T05:24:28;5.17;;;5.07;;
3527;SDS011;1778;47.966;7.854;2022-10-13T05:25:36;5.60;;;5.50;;
3527;SDS011;1778;47.966;7.854;2022-10-13T05:26:38;5.50;;;5.40;;
3527;SDS011;1778;47.966;7.854;2022-10-13T05:27:40;5.50;;;5.40;;
3527;SDS011;1778;47.966;7.854;2022-10-13T05:28:42;5.27;;;5.17;;
3527;SDS011;1778;47.966;7.854;2022-10-13T05:29:44;5.20;;;5.10;;
3527;SDS011;1778;47.966;7.854;2022-10-13T05:30:46;5.03;;;4.93;;
3527;SDS011;1778;47.966;7.854;2022-10-13T05:31:48;5.30;;;5.20;;
3527;SDS011;1778;47.966;7.854;2022-10-13T05:32:49;5.53;;;5.43;;
3527;SDS011;1778;47.966;7.854;2022-10-13T05:33:55;5.70;;;5.60;;
3527;SDS011;1778;47.966;7.854;2022-10-13T05:34:56;5.33;;;5.23;;
3527;SDS011;1778;47.966;7.854;2022-10-13T05:36:04;5.20;;;5.10;;
3527;SDS011;1778;47.966;7.854;2022-10-13T05:37:10;5.43;;;5.33;;
3527;SDS011;1778;47.966;7.854;2022-10-13T05:38:12;4.97;;;4.87;;
3527;SDS011;1778;47.966;7.854;2022-10-13T05:39:15;5.17;;;5.07;;
3527;SDS011;1778;47.966;7.854;2022-10-13T05:40:17;5.03;;;4.93;;
3527;SDS011;1778;47.966;7.854;2022-10-13T05:41:21;5.67;;;5.57;;
3527;SDS011;1778;47.966;7.854;2022-10-13T05:42:23;5.30;;;5.20;;
3527;SDS011;1778;47.966;7.854;2022-10-13T05:43:25;4.90;;;4.80;;
3527;SDS011;1778;47.966;7.854;2022-10-13T05:44:26;5.40;;;5.30;;
3527;SDS011;1778;47.966;7.854;2022-10-13T05:45:28;5.33;;;5.23;;
3527;SDS011;1778;47.966;7.854;2022-10-13T05:46:32;5.53;;;5.43;;
3527;SDS011;1778;47.966;7.854;2022-10-13T05:47:33;4.90;;;4.80;;
3527;SDS011;1778;47.966;7.854;2022-10-13T05:48:35;5.30;;;5.20;;
3527;SDS011;1778;47.966;7.854;2022-10-13T05:49:37;5.10;;;5.00;;
3527;SDS011;1778;47.966;7.854;2022-10-13T05:50:41;5.00;;;4.90;;
3527;SDS011;1778;47.966;7.854;2022-10-13T05:51:44;5.20;;;5.10;;
3527;SDS011;1778;47.966;7.854;2022-10-13T05:52:49;5.50;;;5.40;;
3527;SDS011;1778;47.966;7.854;2022-10-13T05:53:52;5.23;;;5.13;;
3527;SDS011;1778;47.966;7.854;2022-10-13T05:55:00;5.33;;;5.23;;
3527;SDS011;1778;47.966;7.854;2022-10-13T05:56:07;5.77;;;5.67;;
3527;SDS011;1778;47.966;7.854;2022-10-13T05:58:16;5.70;;;5.60;;
3527;SDS011;1778;47.966;7.854;2022-10-13T05:59:18;5.53;;;5.43;;
3527;SDS011;1778;47.966;7.854;2022-10-13T06:00:27;5.70;;;5.60;;
3527;SDS011;1778;47.966;7.854;2022-10-13T06:01:30;5.43;;;5.33;;
3527;SDS011;1778;47.966;7.854;2022-10-13T06:02:42;5.77;;;5.67;;
3527;SDS011;1778;47.966;7.854;2022-10-13T06:03:49;5.30;;;5.20;;
3527;SDS011;1778;47.966;7.854;2022-10-13T06:04:54;5.73;;;5.63;;
3527;SDS011;1778;47.966;7.854;2022-10-13T06:05:57;5.03;;;4.93;;
3527;SDS011;1778;47.966;7.854;2022-10-13T06:06:59;5.40;;;5.30;;
3527;SDS011;1778;47.966;7.854;2022-10-13T06:08:00;5.10;;;5.00;;
3527;SDS011;1778;47.966;7.854;2022-10-13T06:09:06;5.10;;;5.00;;
3527;SDS011;1778;47.966;7.854;2022-10-13T06:10:07;5.07;;;4.97;;
3527;SDS011;1778;47.966;7.854;2022-10-13T06:11:10;5.30;;;5.20;;
3527;SDS011;1778;47.966;7.854;2022-10-13T06:12:12;5.63;;;5.53;;
3527;SDS011;1778;47.966;7.854;2022-10-13T06:13:13;5.73;;;5.63;;
3527;SDS011;1778;47.966;7.854;2022-10-13T06:14:15;5.10;;;5.00;;
3527;SDS011;1778;47.966;7.854;2022-10-13T06:15:16;5.30;;;5.20;;
3527;SDS011;1778;47.966;7.854;2022-10-13T06:16:18;5.47;;;5.37;;
3527;SDS011;1778;47.966;7.854;2022-10-13T06:17:20;4.93;;;4.83;;
3527;SDS011;1778;47.966;7.854;2022-10-13T06:18:22;5.40;;;5.30;;
3527;SDS011;1778;47.966;7.854;2022-10-13T06:19:23;5.40;;;5.30;;
3527;SDS011;1778;47.966;7.854;2022-10-13T06:20:25;5.03;;;4.93;;
3527;SDS011;1778;47.966;7.854;2022-10-13T06:21:27;5.40;;;5.30;;
3527;SDS011;1778;47.966;7.854;2022-10-13T06:22:29;5.30;;;5.20;;
3527;SDS011;1778;47.966;7.854;2022-10-13T06:23:30;5.57;;;5.47;;
3527;SDS011;1778;47.966;7.854;2022-10-13T06:24:32;5.10;;;5.00;;
3527;SDS011;1778;47.966;7.854;2022-10-13T06:25:33;5.33;;;5.23;;
3527;SDS011;1778;47.966;7.854;2022-10-13T06:26:36;5.63;;;5.53;;
3527;SDS011;1778;47.966;7.854;2022-10-13T06:27:37;5.13;;;5.03;;
3527;SDS011;1778;47.966;7.854;2022-10-13T06:28:39;5.50;;;5.40;;
3527;SDS011;1778;47.966;7.854;2022-10-13T06:29:40;5.23;;;5.13;;
3527;SDS011;1778;47.966;7.854;2022-10-13T06:30:42;5.27;;;5.17;;
3527;SDS011;1778;47.966;7.854;2022-10-13T06:31:46;5.33;;;5.23;;
3527;SDS011;1778;47.966;7.854;2022-10-13T06:32:48;5.53;;;5.43;;
3527;SDS011;1778;47.966;7.854;2022-10-13T06:33:50;5.30;;;5.20;;
3527;SDS011;1778;47.966;7.854;2022-10-13T06:34:51;5.23;;;5.13;;
3527;SDS011;1778;47.966;7.854;2022-10-13T06:35:53;5.60;;;5.50;;
3527;SDS011;1778;47.966;7.854;2022-10-13T06:36:54;5.37;;;5.27;;
3527;SDS011;1778;47.966;7.854;2022-10-13T06:37:56;5.00;;;4.90;;
3527;SDS011;1778;47.966;7.854;2022-10-13T06:38:57;5.50;;;5.40;;
3527;SDS011;1778;47.966;7.854;2022-10-13T06:39:59;5.10;;;5.00;;
3527;SDS011;1778;47.966;7.854;2022-10-13T06:41:01;5.00;;;4.90;;
3527;SDS011;1778;47.966;7.854;2022-10-13T06:42:05;5.33;;;5.23;;
3527;SDS011;1778;47.966;7.854;2022-10-13T06:43:10;5.23;;;5.13;;
3527;SDS011;1778;47.966;7.854;2022-10-13T06:44:14;5.27;;;5.17;;
3527;SDS011;1778;47.966;7.854;2022-10-13T06:45:16;5.07;;;4.97;;
3527;SDS011;1778;47.966;7.854;2022-10-13T06:46:19;5.27;;;5.17;;
3527;SDS011;1778;47.966;7.854;2022-10-13T06:47:21;5.17;;;5.07;;
3527;SDS011;1778;47.966;7.854;2022-10-13T06:48:22;5.50;;;5.40;;
3527;SDS011;1778;47.966;7.854;2022-10-13T06:49:24;5.60;;;5.50;;
3527;SDS011;1778;47.966;7.854;2022-10-13T06:50:25;5.10;;;5.00;;
3527;SDS011;1778;47.966;7.854;2022-10-13T06:51:27;7.83;;;7.40;;
3527;SDS011;1778;47.966;7.854;2022-10-13T06:52:29;5.23;;;5.13;;
3527;SDS011;1778;47.966;7.854;2022-10-13T06:53:31;4.77;;;4.67;;
3527;SDS011;1778;47.966;7.854;2022-10-13T06:54:33;5.63;;;5.53;;
3527;SDS011;1778;47.966;7.854;2022-10-13T06:55:34;5.30;;;5.20;;
3527;SDS011;1778;47.966;7.854;2022-10-13T06:56:36;5.57;;;5.47;;